Time;durP1;ratioP1;P1;durP2;ratioP2;P2;SDS_P1;SDS_P2;PMS_P1;PMS_P2;Temp;Humidity;BMP_temperature;BMP_pressure;BME280_temperature;BME280_humidity;BME280_pressure;Samples;Min_cycle;Max_cycle;Signal;HPM_P1;HPM_P2
2021/06/27 00:02:31;;;;;;;11.07;9.88;;;18.60;17.50;;;;;;4866355;29;20051;-64
2021/06/27 00:05:22;;;;;;;15.07;10.40;;;18.60;17.80;;;;;;4868518;29;20581;-64
2021/06/27 00:08:12;;;;;;;13.20;11.02;;;18.60;16.40;;;;;;4871382;29;20531;-64
2021/06/27 00:11:02;;;;;;;11.63;10.15;;;18.60;16.60;;;;;;4868408;29;20044;-64
2021/06/27 00:13:50;;;;;;;28.02;10.88;;;18.50;17.00;;;;;;4868300;29;20045;-64
2021/06/27 00:16:41;;;;;;;12.07;9.80;;;18.50;17.30;;;;;;4867021;29;20061;-65
2021/06/27 00:19:30;;;;;;;10.23;9.13;;;18.60;16.70;;;;;;4865392;29;20060;-64
2021/06/27 00:22:18;;;;;;;13.00;9.55;;;18.50;16.40;;;;;;4865679;29;20132;-63
2021/06/27 00:25:09;;;;;;;12.35;9.60;;;18.50;16.10;;;;;;4868293;29;20165;-64
2021/06/27 00:27:59;;;;;;;13.15;9.50;;;18.60;15.80;;;;;;4866738;29;20057;-65
2021/06/27 00:30:50;;;;;;;11.20;9.15;;;18.50;15.80;;;;;;4862963;29;20053;-64
2021/06/27 00:33:40;;;;;;;12.82;9.43;;;18.40;17.20;;;;;;4868712;29;20104;-64
2021/06/27 00:36:29;;;;;;;13.63;9.10;;;18.30;17.80;;;;;;4866078;29;20048;-64
2021/06/27 00:39:23;;;;;;;13.25;9.95;;;18.10;19.10;;;;;;4865929;29;20049;-64
2021/06/27 00:42:11;;;;;;;10.73;9.13;;;18.10;20.60;;;;;;4862202;29;20056;-64
2021/06/27 00:45:00;;;;;;;11.25;10.05;;;18.10;20.60;;;;;;4867649;29;20056;-65
2021/06/27 00:47:50;;;;;;;13.52;10.23;;;18.00;21.60;;;;;;4866428;29;20425;-63
2021/06/27 00:50:43;;;;;;;9.60;8.48;;;18.00;21.50;;;;;;4864991;29;20053;-64
2021/06/27 00:53:31;;;;;;;11.10;9.15;;;18.00;21.60;;;;;;4864416;29;20154;-64
2021/06/27 00:56:20;;;;;;;11.13;9.05;;;18.00;20.50;;;;;;4863045;29;20049;-65
2021/06/27 00:59:08;;;;;;;10.80;9.30;;;17.90;21.90;;;;;;4866770;29;20416;-65
2021/06/27 01:01:57;;;;;;;9.82;8.48;;;17.90;22.00;;;;;;4863903;29;20053;-65
2021/06/27 01:04:45;;;;;;;11.23;8.55;;;17.90;22.50;;;;;;4867459;29;20497;-65
2021/06/27 01:07:35;;;;;;;9.38;7.93;;;18.00;21.30;;;;;;4864412;29;20053;-65
2021/06/27 01:10:24;;;;;;;10.52;8.23;;;18.00;20.10;;;;;;4868661;29;20049;-64
2021/06/27 01:13:13;;;;;;;12.48;8.48;;;18.10;20.00;;;;;;4869537;29;20045;-65
2021/06/27 01:16:02;;;;;;;9.07;8.15;;;17.90;20.40;;;;;;4863056;29;20081;-64
2021/06/27 01:18:53;;;;;;;9.70;7.93;;;17.90;21.40;;;;;;4865775;29;20048;-65
2021/06/27 01:21:44;;;;;;;9.88;8.88;;;17.80;22.40;;;;;;4862712;29;20535;-64
2021/06/27 01:24:32;;;;;;;9.23;7.97;;;17.80;22.00;;;;;;4867885;29;20124;-64
2021/06/27 01:27:21;;;;;;;10.18;9.13;;;17.80;21.80;;;;;;4865054;29;20057;-65
2021/06/27 01:30:11;;;;;;;9.63;8.63;;;17.70;22.20;;;;;;4865838;29;20057;-65
2021/06/27 01:33:02;;;;;;;9.07;7.95;;;17.70;22.40;;;;;;4866606;29;20056;-64
2021/06/27 01:35:51;;;;;;;11.93;8.63;;;17.70;21.80;;;;;;4864639;29;20040;-65
2021/06/27 01:38:41;;;;;;;13.93;9.02;;;17.70;21.50;;;;;;4864809;29;20054;-65
2021/06/27 01:41:29;;;;;;;10.70;8.77;;;17.70;21.70;;;;;;4867394;29;20061;-65
2021/06/27 01:44:19;;;;;;;9.15;7.93;;;17.70;22.40;;;;;;4865715;29;20053;-65
2021/06/27 01:47:08;;;;;;;9.05;8.15;;;17.70;22.50;;;;;;4862969;29;20053;-65
2021/06/27 01:49:57;;;;;;;10.57;8.25;;;17.50;23.70;;;;;;4864948;29;20441;-65
2021/06/27 01:52:45;;;;;;;8.93;7.90;;;17.50;23.00;;;;;;4866323;29;20049;-65
2021/06/27 01:55:35;;;;;;;8.68;7.60;;;17.60;22.40;;;;;;4860991;29;20053;-66
2021/06/27 01:58:24;;;;;;;7.97;7.15;;;17.60;22.50;;;;;;4865784;29;20068;-65
2021/06/27 02:01:15;;;;;;;8.63;7.60;;;17.70;20.30;;;;;;4864579;29;20060;-65
2021/06/27 02:04:05;;;;;;;7.95;7.15;;;17.80;20.10;;;;;;4866777;29;20406;-64
2021/06/27 02:06:53;;;;;;;8.90;8.00;;;17.80;19.00;;;;;;4866786;29;20995;-65
2021/06/27 02:09:42;;;;;;;7.97;7.18;;;17.80;19.30;;;;;;4864709;29;20458;-65
2021/06/27 02:12:32;;;;;;;9.80;7.93;;;17.70;20.40;;;;;;4858346;29;20406;-65
2021/06/27 02:15:21;;;;;;;10.45;8.05;;;17.50;21.10;;;;;;4867984;29;21428;-66
2021/06/27 02:18:27;;;;;;;9.88;8.60;;;17.40;23.00;;;;;;4871256;29;20535;-66
2021/06/27 02:21:19;;;;;;;12.23;9.50;;;17.40;23.70;;;;;;4861802;29;20049;-65
2021/06/27 02:24:09;;;;;;;10.57;8.57;;;17.40;24.10;;;;;;4867075;29;20060;-65
2021/06/27 02:26:57;;;;;;;10.15;9.05;;;17.30;25.10;;;;;;4862108;29;20057;-66
2021/06/27 02:29:47;;;;;;;14.50;10.23;;;17.30;25.90;;;;;;4865593;29;20071;-64
2021/06/27 02:32:35;;;;;;;11.68;9.38;;;17.20;27.00;;;;;;4858553;29;20052;-64
2021/06/27 02:35:24;;;;;;;10.63;9.00;;;17.20;27.00;;;;;;4865755;29;20069;-64
2021/06/27 02:38:13;;;;;;;12.07;10.23;;;17.20;27.00;;;;;;4868685;29;20060;-64
2021/06/27 02:41:01;;;;;;;12.15;10.50;;;17.10;28.10;;;;;;4865169;29;20053;-65
2021/06/27 02:43:50;;;;;;;13.25;10.75;;;17.00;29.50;;;;;;4865843;29;20079;-65
2021/06/27 02:46:40;;;;;;;12.45;10.93;;;17.00;30.20;;;;;;4864353;29;20132;-65
2021/06/27 02:49:28;;;;;;;11.50;9.75;;;16.90;31.50;;;;;;4866352;29;20057;-64
2021/06/27 02:52:17;;;;;;;12.80;10.75;;;16.90;32.80;;;;;;4863101;29;20076;-65
2021/06/27 02:55:08;;;;;;;11.32;9.98;;;16.80;32.90;;;;;;4862366;29;20045;-64
2021/06/27 02:57:57;;;;;;;17.25;11.45;;;16.80;33.30;;;;;;4864742;29;20532;-65
2021/06/27 03:00:45;;;;;;;13.18;11.05;;;16.80;34.50;;;;;;4864223;29;20053;-64
2021/06/27 03:03:36;;;;;;;13.23;11.63;;;16.80;35.20;;;;;;4865642;29;20057;-64
2021/06/27 03:06:24;;;;;;;15.63;11.77;;;16.70;36.70;;;;;;4865524;29;20068;-64
2021/06/27 03:09:13;;;;;;;13.55;12.15;;;16.60;38.50;;;;;;4864669;29;20110;-65
2021/06/27 03:12:01;;;;;;;14.48;11.90;;;16.60;38.80;;;;;;4864280;29;20088;-64
2021/06/27 03:14:50;;;;;;;15.18;11.82;;;16.60;39.90;;;;;;4869416;29;20052;-64
2021/06/27 03:17:38;;;;;;;12.57;11.27;;;16.50;39.40;;;;;;4867364;29;20041;-65
2021/06/27 03:20:28;;;;;;;14.27;11.30;;;16.60;41.20;;;;;;4866053;29;20078;-65
2021/06/27 03:23:17;;;;;;;16.38;12.45;;;16.70;40.70;;;;;;4869674;29;20053;-65
2021/06/27 03:26:06;;;;;;;13.30;11.48;;;16.60;41.10;;;;;;4869321;29;20214;-65
2021/06/27 03:28:54;;;;;;;13.15;11.60;;;16.50;41.00;;;;;;4869689;29;20057;-65
2021/06/27 03:31:42;;;;;;;13.55;11.40;;;16.50;42.80;;;;;;4869700;29;20429;-64
2021/06/27 03:34:31;;;;;;;16.52;12.73;;;16.60;41.40;;;;;;4868863;29;20087;-64
2021/06/27 03:37:21;;;;;;;13.98;11.45;;;16.70;40.70;;;;;;4871644;29;20501;-65
2021/06/27 03:40:11;;;;;;;14.77;11.25;;;16.70;40.30;;;;;;4871026;29;20052;-65
2021/06/27 03:43:01;;;;;;;11.93;10.32;;;16.80;38.40;;;;;;4867926;29;20064;-65
2021/06/27 03:45:49;;;;;;;11.00;9.70;;;17.00;36.70;;;;;;4867245;29;20417;-65
2021/06/27 03:48:38;;;;;;;10.57;9.45;;;17.70;29.60;;;;;;4869212;29;20184;-66
2021/06/27 03:51:26;;;;;;;12.25;9.80;;;18.30;21.30;;;;;;4866989;29;20053;-65
2021/06/27 03:54:17;;;;;;;12.95;9.25;;;18.00;23.30;;;;;;4866875;29;20057;-64
2021/06/27 03:57:06;;;;;;;9.35;8.35;;;18.40;21.50;;;;;;4869752;29;20508;-65
2021/06/27 03:59:55;;;;;;;10.40;8.23;;;18.10;20.30;;;;;;4864377;29;20058;-66
2021/06/27 04:02:45;;;;;;;9.90;8.15;;;17.70;22.40;;;;;;4864344;29;20049;-65
2021/06/27 04:05:34;;;;;;;9.82;8.45;;;17.70;21.80;;;;;;4865782;29;20045;-64
2021/06/27 04:08:22;;;;;;;9.82;7.95;;;17.60;23.80;;;;;;4868721;29;20053;-64
2021/06/27 04:11:12;;;;;;;11.20;8.20;;;17.60;23.60;;;;;;4858335;29;20112;-64
2021/06/27 04:14:01;;;;;;;9.40;7.82;;;17.70;22.60;;;;;;4866951;29;20053;-65
2021/06/27 04:16:49;;;;;;;9.80;7.60;;;17.80;23.20;;;;;;4867449;29;20055;-65
2021/06/27 04:19:38;;;;;;;9.48;7.82;;;18.10;19.50;;;;;;4870320;29;20045;-65
2021/06/27 04:22:26;;;;;;;10.15;7.93;;;17.90;21.20;;;;;;4864900;29;20065;-65
2021/06/27 04:25:15;;;;;;;10.77;8.05;;;17.90;21.10;;;;;;4864981;29;20052;-66
2021/06/27 04:28:06;;;;;;;9.82;7.15;;;18.00;20.70;;;;;;4867216;29;20050;-65
2021/06/27 04:30:54;;;;;;;9.30;7.65;;;18.10;19.60;;;;;;4866643;29;20049;-64
2021/06/27 04:33:43;;;;;;;8.63;7.15;;;18.30;19.80;;;;;;4868607;29;20053;-65
2021/06/27 04:36:31;;;;;;;7.45;6.65;;;18.30;17.90;;;;;;4864233;29;20057;-65
2021/06/27 04:39:20;;;;;;;8.50;6.50;;;18.30;19.20;;;;;;4868060;29;20394;-65
2021/06/27 04:42:08;;;;;;;7.50;6.70;;;18.50;18.90;;;;;;4860470;29;20058;-65
2021/06/27 04:44:59;;;;;;;9.38;7.28;;;18.60;16.50;;;;;;4868460;29;20073;-65
2021/06/27 04:47:48;;;;;;;9.25;7.22;;;18.60;13.70;;;;;;4863217;29;20076;-65
2021/06/27 04:50:37;;;;;;;8.45;7.07;;;18.90;14.40;;;;;;4867832;29;20065;-65
2021/06/27 04:53:26;;;;;;;9.30;7.25;;;19.30;11.30;;;;;;4868023;29;20132;-65
2021/06/27 04:56:15;;;;;;;7.43;6.57;;;19.10;12.10;;;;;;4864705;29;20037;-66
2021/06/27 04:59:03;;;;;;;8.05;6.82;;;19.30;8.90;;;;;;4868792;29;20557;-65
2021/06/27 05:01:53;;;;;;;8.98;7.38;;;19.50;7.60;;;;;;4860311;29;20049;-65
2021/06/27 05:04:41;;;;;;;7.18;6.45;;;19.20;7.40;;;;;;4869916;29;20495;-66
2021/06/27 05:07:30;;;;;;;7.47;6.65;;;19.00;8.20;;;;;;4866200;29;20509;-65
2021/06/27 05:10:18;;;;;;;8.65;6.50;;;19.00;9.80;;;;;;4869563;29;20060;-65
2021/06/27 05:13:08;;;;;;;8.77;6.82;;;19.10;8.70;;;;;;4866877;29;20066;-65
2021/06/27 05:15:57;;;;;;;9.13;6.65;;;19.40;7.00;;;;;;4865981;29;20053;-64
2021/06/27 05:18:47;;;;;;;8.88;7.07;;;19.50;7.10;;;;;;4868615;29;20076;-64
2021/06/27 05:21:35;;;;;;;7.45;6.75;;;19.20;10.40;;;;;;4861230;29;20057;-65
2021/06/27 05:24:24;;;;;;;8.02;6.60;;;19.70;7.70;;;;;;4870686;29;20462;-65
2021/06/27 05:27:12;;;;;;;12.63;6.70;;;20.80;1.40;;;;;;4867905;29;20390;-66
2021/06/27 05:30:01;;;;;;;8.57;6.72;;;20.60;1.10;;;;;;4866861;29;20045;-65
2021/06/27 05:32:49;;;;;;;6.25;5.55;;;22.00;1.00;;;;;;4863535;29;20048;-65
2021/06/27 05:35:39;;;;;;;6.68;5.97;;;22.40;1.00;;;;;;4866683;29;20064;-65
2021/06/27 05:38:28;;;;;;;9.73;6.90;;;20.40;1.00;;;;;;4866080;29;20147;-65
2021/06/27 05:41:16;;;;;;;8.93;6.78;;;20.00;2.20;;;;;;4858162;29;20045;-65
2021/06/27 05:44:08;;;;;;;10.38;7.50;;;19.70;4.00;;;;;;4860911;29;20049;-66
2021/06/27 05:46:56;;;;;;;8.82;7.10;;;19.70;5.40;;;;;;4864876;29;20048;-64
2021/06/27 05:49:45;;;;;;;9.25;7.40;;;19.40;7.10;;;;;;4869261;29;20048;-65
2021/06/27 05:52:36;;;;;;;9.45;6.80;;;19.70;6.30;;;;;;4861917;29;20053;-65
2021/06/27 05:55:25;;;;;;;6.80;5.80;;;20.60;1.10;;;;;;4860695;29;20056;-64
2021/06/27 05:58:13;;;;;;;7.72;5.70;;;20.80;1.00;;;;;;4867001;29;20505;-65
2021/06/27 06:01:02;;;;;;;5.80;5.20;;;21.00;1.00;;;;;;4863713;29;20398;-66
2021/06/27 06:03:50;;;;;;;6.45;5.72;;;21.20;1.00;;;;;;4865699;29;20061;-65
2021/06/27 06:06:39;;;;;;;6.18;5.57;;;21.40;1.00;;;;;;4861214;29;20792;-66
2021/06/27 06:09:28;;;;;;;6.15;5.55;;;20.90;1.00;;;;;;4865443;29;20409;-65
2021/06/27 06:12:17;;;;;;;6.10;5.50;;;20.50;1.00;;;;;;4860611;29;20068;-65
2021/06/27 06:15:07;;;;;;;8.65;5.88;;;20.50;1.00;;;;;;4864438;29;20060;-65
2021/06/27 06:17:55;;;;;;;8.40;5.60;;;20.60;1.00;;;;;;4868062;29;20060;-65
2021/06/27 06:20:44;;;;;;;6.32;5.72;;;20.90;1.00;;;;;;4862924;29;20519;-65
2021/06/27 06:23:32;;;;;;;7.18;5.50;;;21.20;1.00;;;;;;4865800;29;20068;-65
2021/06/27 06:26:22;;;;;;;8.32;5.50;;;21.10;1.00;;;;;;4861133;29;20124;-65
2021/06/27 06:29:11;;;;;;;6.30;5.60;;;21.40;1.00;;;;;;4863569;29;20145;-65
2021/06/27 06:31:59;;;;;;;5.90;5.30;;;21.10;1.00;;;;;;4860681;29;20053;-65
2021/06/27 06:34:48;;;;;;;8.15;6.22;;;21.20;1.00;;;;;;4865306;29;20534;-65
2021/06/27 06:37:36;;;;;;;6.30;5.70;;;21.10;1.00;;;;;;4866579;29;20052;-65
2021/06/27 06:40:25;;;;;;;6.75;6.05;;;21.10;1.00;;;;;;4864972;29;20064;-65
2021/06/27 06:43:15;;;;;;;6.88;6.18;;;21.70;1.00;;;;;;4867728;29;20052;-64
2021/06/27 06:46:03;;;;;;;7.15;5.97;;;21.80;1.00;;;;;;4865051;29;20056;-65
2021/06/27 06:48:56;;;;;;;5.93;5.32;;;22.20;1.00;;;;;;4866071;29;20053;-65
2021/06/27 06:51:44;;;;;;;5.47;4.97;;;21.80;1.00;;;;;;4856154;29;20501;-65
2021/06/27 06:54:33;;;;;;;6.63;4.60;;;22.80;1.00;;;;;;4867203;29;20233;-65
2021/06/27 06:57:21;;;;;;;6.55;5.50;;;22.30;1.00;;;;;;4864108;29;20505;-66
2021/06/27 07:00:12;;;;;;;8.23;4.85;;;22.10;1.00;;;;;;4866776;29;20049;-64
2021/06/27 07:03:01;;;;;;;5.80;5.20;;;22.20;1.00;;;;;;4863680;29;20060;-66
2021/06/27 07:05:49;;;;;;;7.60;4.72;;;22.00;1.00;;;;;;4862964;29;20037;-66
2021/06/27 07:08:38;;;;;;;5.95;4.53;;;22.60;1.00;;;;;;4866079;29;20056;-66
2021/06/27 07:11:26;;;;;;;6.28;4.90;;;22.80;1.00;;;;;;4857810;29;20054;-65
2021/06/27 07:14:14;;;;;;;4.88;4.47;;;23.00;1.00;;;;;;4870538;29;20794;-65
2021/06/27 07:17:05;;;;;;;5.47;4.90;;;23.10;1.00;;;;;;4864365;29;20049;-65
2021/06/27 07:19:53;;;;;;;5.50;4.85;;;22.70;1.00;;;;;;4864085;29;20537;-64
2021/06/27 07:22:42;;;;;;;6.15;4.72;;;22.60;1.00;;;;;;4857384;29;20518;-65
2021/06/27 07:25:31;;;;;;;5.65;5.15;;;23.60;1.00;;;;;;4862025;29;20050;-66
2021/06/27 07:28:19;;;;;;;5.10;4.53;;;23.20;1.00;;;;;;4862534;29;20100;-65
2021/06/27 07:31:07;;;;;;;5.80;4.90;;;23.50;1.00;;;;;;4861626;29;20079;-66
2021/06/27 07:33:57;;;;;;;6.63;5.28;;;23.10;1.00;;;;;;4865019;29;20132;-64
2021/06/27 07:36:46;;;;;;;5.32;4.70;;;23.10;1.00;;;;;;4864531;29;20076;-65
2021/06/27 07:39:34;;;;;;;5.30;4.80;;;23.70;1.00;;;;;;4865335;29;20060;-66
2021/06/27 07:42:22;;;;;;;5.38;4.63;;;23.30;1.00;;;;;;4859414;29;20056;-65
2021/06/27 07:45:11;;;;;;;4.40;4.00;;;23.10;1.00;;;;;;4863740;29;20052;-65
2021/06/27 07:48:00;;;;;;;5.13;4.50;;;23.10;1.00;;;;;;4867041;29;20533;-66
2021/06/27 07:50:50;;;;;;;5.18;4.60;;;23.60;1.00;;;;;;4862311;29;20523;-66
2021/06/27 07:53:38;;;;;;;5.97;5.10;;;24.30;1.00;;;;;;4868695;29;20057;-66
2021/06/27 07:56:27;;;;;;;7.70;5.00;;;23.70;1.00;;;;;;4867282;29;20046;-66
2021/06/27 07:59:20;;;;;;;5.07;4.60;;;24.00;1.00;;;;;;4855879;29;20580;-65
2021/06/27 08:02:09;;;;;;;5.53;4.90;;;24.30;1.00;;;;;;4865034;29;20053;-65
2021/06/27 08:04:57;;;;;;;4.70;4.30;;;24.20;1.00;;;;;;4865482;29;20125;-65
2021/06/27 08:07:47;;;;;;;4.88;4.30;;;24.60;1.00;;;;;;4868836;29;20056;-65
2021/06/27 08:10:36;;;;;;;4.95;4.45;;;24.20;1.00;;;;;;4869125;29;20883;-65
2021/06/27 08:13:25;;;;;;;6.13;5.40;;;23.80;1.00;;;;;;4867762;29;20167;-65
2021/06/27 08:16:14;;;;;;;5.60;4.57;;;23.80;1.00;;;;;;4862324;29;20146;-66
2021/06/27 08:19:02;;;;;;;5.68;4.57;;;24.60;1.00;;;;;;4867101;29;20077;-67
2021/06/27 08:21:51;;;;;;;5.00;4.50;;;24.90;1.00;;;;;;4860081;29;20056;-66
2021/06/27 08:24:41;;;;;;;5.30;4.80;;;25.00;1.00;;;;;;4868314;29;20057;-64
2021/06/27 08:27:29;;;;;;;5.32;4.88;;;25.00;1.00;;;;;;4869506;29;20045;-66
2021/06/27 08:30:19;;;;;;;5.47;4.47;;;24.50;1.00;;;;;;4867244;29;20045;-66
2021/06/27 08:33:08;;;;;;;6.40;4.28;;;24.60;1.00;;;;;;4865575;29;20057;-65
2021/06/27 08:35:56;;;;;;;5.43;4.78;;;25.00;1.00;;;;;;4867077;29;20413;-66
2021/06/27 08:38:45;;;;;;;4.43;4.03;;;24.80;1.00;;;;;;4865520;29;20504;-65
2021/06/27 08:41:35;;;;;;;5.72;4.35;;;24.70;1.00;;;;;;4862696;29;20585;-66
2021/06/27 08:44:24;;;;;;;6.18;4.30;;;24.60;1.00;;;;;;4863310;29;20056;-66
2021/06/27 08:47:16;;;;;;;4.65;4.25;;;24.80;1.00;;;;;;4868024;29;20045;-66
2021/06/27 08:50:06;;;;;;;4.68;4.13;;;25.20;1.00;;;;;;4867486;29;20053;-64
2021/06/27 08:52:56;;;;;;;5.30;4.00;;;25.30;1.00;;;;;;4863023;29;20064;-66
2021/06/27 08:55:45;;;;;;;4.55;4.05;;;24.90;1.00;;;;;;4863935;29;20140;-66
2021/06/27 08:58:37;;;;;;;5.03;4.35;;;25.30;1.00;;;;;;4864375;29;20048;-64
2021/06/27 09:01:25;;;;;;;5.28;4.40;;;25.20;1.00;;;;;;4863072;29;20076;-65
2021/06/27 09:04:16;;;;;;;4.40;4.00;;;25.50;1.00;;;;;;4866231;29;20173;-65
2021/06/27 09:07:27;;;;;;;4.75;4.32;;;25.60;1.00;;;;;;4864650;29;20045;-65
2021/06/27 09:10:26;;;;;;;3.75;3.45;;;25.70;1.00;;;;;;4865520;29;20056;-65
2021/06/27 09:13:14;;;;;;;4.30;3.63;;;25.60;1.00;;;;;;4864344;29;20041;-65
2021/06/27 09:16:18;;;;;;;4.00;3.53;;;26.10;1.00;;;;;;4865846;29;20046;-66
2021/06/27 09:19:06;;;;;;;4.70;3.88;;;25.60;1.00;;;;;;4867927;29;20060;-65
2021/06/27 09:22:10;;;;;;;5.43;3.42;;;25.70;1.00;;;;;;4859501;29;20053;-65
2021/06/27 09:25:16;;;;;;;3.70;3.40;;;25.70;1.00;;;;;;4866084;29;20533;-65
2021/06/27 09:28:09;;;;;;;3.40;3.03;;;25.90;1.00;;;;;;4869220;29;20037;-65
2021/06/27 09:30:57;;;;;;;3.95;3.58;;;26.20;1.00;;;;;;4863270;29;20136;-65
2021/06/27 09:33:58;;;;;;;4.32;3.40;;;26.70;1.00;;;;;;4864239;29;20128;-66
2021/06/27 09:36:51;;;;;;;3.50;3.20;;;27.00;1.00;;;;;;4862063;29;20047;-65
2021/06/27 09:39:54;;;;;;;3.15;2.83;;;26.60;1.00;;;;;;4851700;29;20049;-65
2021/06/27 09:42:43;;;;;;;2.92;2.72;;;26.50;1.00;;;;;;4859052;29;20057;-65
2021/06/27 09:45:46;;;;;;;3.42;3.03;;;26.30;1.00;;;;;;4862538;29;20538;-66
2021/06/27 09:48:35;;;;;;;3.03;2.50;;;26.50;1.00;;;;;;4866202;29;20511;-65
2021/06/27 09:51:28;;;;;;;3.00;2.70;;;26.30;1.00;;;;;;4855961;29;20104;-64
2021/06/27 09:54:19;;;;;;;3.30;3.00;;;26.60;1.00;;;;;;4864790;29;20049;-65
2021/06/27 09:57:21;;;;;;;2.92;2.65;;;26.90;1.00;;;;;;4878069;29;20425;-64
2021/06/27 10:00:32;;;;;;;3.00;2.72;;;26.80;1.00;;;;;;4864022;29;20506;-66
2021/06/27 10:03:24;;;;;;;3.33;2.83;;;26.50;1.00;;;;;;4862698;29;21670;-65
2021/06/27 10:06:12;;;;;;;3.35;2.90;;;26.80;1.00;;;;;;4862189;29;20145;-66
2021/06/27 10:09:11;;;;;;;2.95;2.75;;;26.40;1.00;;;;;;4867147;29;20052;-66
2021/06/27 10:12:02;;;;;;;2.72;2.53;;;27.10;1.00;;;;;;4861798;29;20049;-65
2021/06/27 10:14:57;;;;;;;5.70;2.50;;;26.80;1.00;;;;;;4859667;29;20037;-67
2021/06/27 10:17:46;;;;;;;;;;;26.90;1.00;;;;;;4869197;29;20440;-66
2021/06/27 10:20:36;;;;;;;2.55;2.35;;;27.20;1.00;;;;;;4875097;29;19931;-66
2021/06/27 10:23:27;;;;;;;2.60;2.40;;;27.20;1.00;;;;;;4860803;29;20124;-66
2021/06/27 10:26:18;;;;;;;2.97;2.67;;;27.30;1.00;;;;;;4864214;29;20112;-67
2021/06/27 10:29:10;;;;;;;2.83;2.60;;;27.00;1.00;;;;;;4869144;29;20047;-67
2021/06/27 10:31:59;;;;;;;2.92;2.30;;;27.20;1.00;;;;;;4863057;29;20054;-67
2021/06/27 10:34:49;;;;;;;2.92;2.63;;;27.80;1.00;;;;;;4851415;29;20329;-67
2021/06/27 10:37:39;;;;;;;2.80;2.53;;;28.00;1.00;;;;;;4865977;29;20049;-65
2021/06/27 10:40:28;;;;;;;3.08;2.78;;;27.90;1.00;;;;;;4862396;29;20358;-66
2021/06/27 10:43:18;;;;;;;2.45;2.20;;;27.70;1.00;;;;;;4864021;29;20042;-67
2021/06/27 10:46:07;;;;;;;2.45;2.25;;;27.60;1.00;;;;;;4851237;29;20060;-65
2021/06/27 10:48:56;;;;;;;3.10;2.60;;;28.00;1.00;;;;;;4856353;29;20049;-67
2021/06/27 10:52:02;;;;;;;3.17;2.42;;;27.60;1.00;;;;;;4851365;29;20119;-66
2021/06/27 10:55:18;;;;;;;2.42;2.22;;;28.10;1.00;;;;;;4860399;29;20522;-66
2021/06/27 10:58:08;;;;;;;2.38;2.17;;;28.30;1.00;;;;;;4865838;29;20041;-65
2021/06/27 11:01:16;;;;;;;2.22;2.03;;;28.20;1.00;;;;;;4852985;29;20547;-66
2021/06/27 11:04:24;;;;;;;2.53;2.33;;;28.70;1.00;;;;;;4867669;29;20060;-66
2021/06/27 11:07:48;;;;;;;3.28;2.00;;;28.70;1.00;;;;;;4865956;29;20048;-66
2021/06/27 11:10:37;;;;;;;2.88;2.10;;;28.60;1.00;;;;;;4841749;29;20057;-66
2021/06/27 11:13:26;;;;;;;4.38;2.03;;;28.60;1.00;;;;;;4867874;29;20049;-66
2021/06/27 11:16:22;;;;;;;3.17;2.35;;;28.80;1.00;;;;;;4861030;29;20045;-66
2021/06/27 11:19:26;;;;;;;2.55;2.20;;;28.80;1.00;;;;;;4865219;29;20132;-65
2021/06/27 11:22:20;;;;;;;4.00;2.00;;;28.60;1.00;;;;;;4856621;29;20049;-64
2021/06/27 11:25:35;;;;;;;1.80;1.70;;;28.40;1.00;;;;;;4866304;29;20282;-66
2021/06/27 11:28:37;;;;;;;2.38;2.17;;;28.30;1.00;;;;;;4864289;29;20129;-66
2021/06/27 11:31:28;;;;;;;3.25;2.10;;;28.40;1.00;;;;;;4869385;29;20089;-66
2021/06/27 11:34:23;;;;;;;3.83;2.20;;;28.30;1.00;;;;;;4867009;29;20245;-67
2021/06/27 11:37:43;;;;;;;2.25;2.05;;;28.50;1.00;;;;;;4864062;29;20052;-66
2021/06/27 11:40:50;;;;;;;2.40;2.20;;;28.80;1.00;;;;;;4868186;29;20076;-66
2021/06/27 11:43:59;;;;;;;2.50;2.30;;;28.90;1.00;;;;;;4867963;29;20049;-65
2021/06/27 11:46:49;;;;;;;2.70;2.50;;;28.20;1.00;;;;;;4865462;29;20062;-66
2021/06/27 11:49:37;;;;;;;2.92;2.35;;;28.60;1.00;;;;;;4870625;29;20060;-66
2021/06/27 11:52:26;;;;;;;3.45;2.30;;;28.20;1.00;;;;;;4864250;29;20425;-67
2021/06/27 11:55:14;;;;;;;2.60;2.22;;;28.10;1.00;;;;;;4866019;29;20057;-67
2021/06/27 11:58:05;;;;;;;4.85;2.50;;;28.30;1.00;;;;;;4866476;29;20045;-66
2021/06/27 12:00:54;;;;;;;4.07;2.25;;;29.00;1.00;;;;;;4865427;29;20420;-66
2021/06/27 12:03:48;;;;;;;2.63;2.42;;;29.10;1.00;;;;;;4866712;29;20560;-67
2021/06/27 12:06:37;;;;;;;;;;;28.90;1.00;;;;;;4864342;29;20049;-66
2021/06/27 12:09:35;;;;;;;2.55;2.35;;;29.00;1.00;;;;;;4870415;29;19924;-67
2021/06/27 12:12:38;;;;;;;2.92;2.33;;;29.20;1.00;;;;;;4862340;29;20057;-66
2021/06/27 12:15:29;;;;;;;2.50;2.30;;;29.10;1.00;;;;;;4866351;29;20140;-67
2021/06/27 12:18:20;;;;;;;2.30;2.10;;;29.20;1.00;;;;;;4867822;29;20064;-66
2021/06/27 12:21:13;;;;;;;4.18;2.22;;;29.40;1.00;;;;;;4866547;29;20053;-67
2021/06/27 12:24:02;;;;;;;2.50;2.08;;;29.60;1.00;;;;;;4866925;29;20049;-66
2021/06/27 12:26:50;;;;;;;2.38;1.88;;;29.30;1.00;;;;;;4861747;29;20417;-66
2021/06/27 12:29:51;;;;;;;2.28;2.03;;;29.00;1.00;;;;;;4867591;29;20059;-66
2021/06/27 12:32:59;;;;;;;2.28;1.98;;;28.60;1.00;;;;;;4865161;29;20053;-66
2021/06/27 12:35:51;;;;;;;2.25;2.05;;;28.90;1.00;;;;;;4848695;29;20045;-66
2021/06/27 12:38:47;;;;;;;5.50;1.95;;;29.10;1.00;;;;;;4867479;29;20053;-66
2021/06/27 12:41:40;;;;;;;3.05;2.10;;;28.70;1.00;;;;;;4867047;29;20063;-65
2021/06/27 12:44:29;;;;;;;3.13;2.00;;;28.70;1.00;;;;;;4880090;29;20441;-66
2021/06/27 12:47:28;;;;;;;2.50;2.30;;;28.40;1.00;;;;;;4864727;29;20049;-67
2021/06/27 12:50:17;;;;;;;2.28;2.08;;;28.70;1.00;;;;;;4869248;29;20049;-66
2021/06/27 12:53:07;;;;;;;2.10;1.88;;;28.40;1.00;;;;;;4865643;29;20045;-65
2021/06/27 12:56:07;;;;;;;2.13;2.00;;;29.10;1.00;;;;;;4856354;29;20076;-66
2021/06/27 12:58:56;;;;;;;2.53;1.80;;;29.20;1.00;;;;;;4867247;29;20410;-66
2021/06/27 13:02:00;;;;;;;2.40;2.00;;;28.70;1.00;;;;;;4867581;29;20053;-67
2021/06/27 13:04:55;;;;;;;3.13;1.80;;;29.40;1.00;;;;;;4866692;29;20527;-66
2021/06/27 13:07:46;;;;;;;1.95;1.75;;;29.60;1.00;;;;;;4864968;29;20052;-65
2021/06/27 13:10:35;;;;;;;2.20;2.00;;;29.00;1.00;;;;;;4861307;29;20042;-66
2021/06/27 13:13:30;;;;;;;2.25;2.05;;;28.80;1.00;;;;;;4863422;29;20556;-67
2021/06/27 13:16:19;;;;;;;2.20;2.00;;;29.20;1.00;;;;;;4859862;29;20098;-66
2021/06/27 13:19:08;;;;;;;3.15;2.85;;;29.40;1.00;;;;;;4866993;29;20048;-65
2021/06/27 13:22:08;;;;;;;2.55;2.35;;;28.90;1.00;;;;;;4867623;29;20424;-66
2021/06/27 13:25:02;;;;;;;2.28;2.08;;;28.60;1.00;;;;;;4867551;29;20041;-65
2021/06/27 13:27:54;;;;;;;2.28;2.08;;;28.70;1.00;;;;;;4865332;29;20508;-66
2021/06/27 13:31:03;;;;;;;2.35;2.15;;;28.80;1.00;;;;;;4864567;29;20056;-66
2021/06/27 13:33:54;;;;;;;2.10;1.90;;;28.90;1.00;;;;;;4863165;29;20073;-66
2021/06/27 13:36:43;;;;;;;2.20;2.00;;;29.00;1.00;;;;;;4862433;29;20049;-67
2021/06/27 13:39:32;;;;;;;2.08;1.77;;;29.00;1.00;;;;;;4864881;29;20057;-66
2021/06/27 13:42:20;;;;;;;2.30;1.80;;;28.60;1.00;;;;;;4862895;29;20092;-66
2021/06/27 13:45:10;;;;;;;1.95;1.85;;;28.70;1.00;;;;;;4863590;29;20052;-67
2021/06/27 13:48:00;;;;;;;2.33;2.13;;;28.70;1.00;;;;;;4863050;29;20065;-67
2021/06/27 13:50:49;;;;;;;3.05;2.20;;;28.90;1.00;;;;;;4864749;29;20073;-67
2021/06/27 13:53:37;;;;;;;2.20;2.03;;;29.00;1.00;;;;;;4860017;29;20045;-67
2021/06/27 13:56:26;;;;;;;2.40;2.10;;;28.70;1.00;;;;;;4863356;29;20049;-67
2021/06/27 13:59:16;;;;;;;5.22;2.40;;;28.60;1.00;;;;;;4865546;29;20052;-67
2021/06/27 14:02:04;;;;;;;2.80;2.50;;;28.60;1.00;;;;;;4862142;29;20049;-66
2021/06/27 14:04:54;;;;;;;2.75;2.25;;;28.40;1.00;;;;;;4864535;29;20049;-66
2021/06/27 14:07:43;;;;;;;2.30;2.10;;;28.50;1.00;;;;;;4860529;29;20049;-66
2021/06/27 14:10:32;;;;;;;3.17;2.00;;;28.40;1.00;;;;;;4862320;29;20064;-66
2021/06/27 14:13:24;;;;;;;2.75;2.45;;;28.70;1.00;;;;;;4865638;29;20052;-67
2021/06/27 14:16:14;;;;;;;2.10;1.83;;;28.50;1.00;;;;;;4861717;29;20514;-67
2021/06/27 14:19:03;;;;;;;2.03;1.83;;;28.90;1.00;;;;;;4867439;29;20130;-67
2021/06/27 14:21:52;;;;;;;2.38;2.17;;;28.90;1.00;;;;;;4859131;29;20084;-67
2021/06/27 14:24:41;;;;;;;2.10;1.90;;;29.20;1.00;;;;;;4864412;29;20516;-68
2021/06/27 14:27:31;;;;;;;1.80;1.70;;;29.20;1.00;;;;;;4864769;29;20177;-67
2021/06/27 14:30:20;;;;;;;1.83;1.67;;;29.40;1.00;;;;;;4863789;29;20433;-66
2021/06/27 14:33:08;;;;;;;2.55;1.80;;;29.00;1.00;;;;;;4864213;29;20420;-67
2021/06/27 14:35:57;;;;;;;2.35;1.75;;;28.70;1.00;;;;;;4861708;29;20053;-67
2021/06/27 14:38:46;;;;;;;1.70;1.58;;;28.80;1.00;;;;;;4863265;29;20456;-67
2021/06/27 14:41:35;;;;;;;1.83;1.70;;;28.90;1.00;;;;;;4868529;29;20053;-67
2021/06/27 14:44:25;;;;;;;2.05;1.83;;;28.60;1.00;;;;;;4864699;29;20053;-68
2021/06/27 14:47:13;;;;;;;2.70;1.95;;;28.60;1.00;;;;;;4861607;29;20049;-65
2021/06/27 14:50:02;;;;;;;5.07;2.42;;;29.10;1.00;;;;;;4868403;29;20056;-67
2021/06/27 14:52:51;;;;;;;2.67;1.90;;;29.00;1.00;;;;;;4863690;29;20049;-66
2021/06/27 14:55:41;;;;;;;1.70;1.55;;;29.10;1.00;;;;;;4863120;29;20056;-66